sensor_id;sensor_type;location;lat;lon;timestamp;P1;durP1;ratioP1;P2;durP2;ratioP2
9860;SDS011;4969;52.304;4.968;2023-01-31T00:00:11;31.37;;;19.57;;
9860;SDS011;4969;52.304;4.968;2023-01-31T00:02:38;28.50;;;20.03;;
9860;SDS011;4969;52.304;4.968;2023-01-31T00:05:05;31.23;;;22.15;;
9860;SDS011;4969;52.304;4.968;2023-01-31T00:07:32;29.48;;;19.92;;
9860;SDS011;4969;52.304;4.968;2023-01-31T00:09:58;29.80;;;17.30;;
9860;SDS011;4969;52.304;4.968;2023-01-31T00:12:26;28.00;;;19.92;;
9860;SDS011;4969;52.304;4.968;2023-01-31T00:14:53;28.38;;;21.50;;
9860;SDS011;4969;52.304;4.968;2023-01-31T00:17:19;30.40;;;21.38;;
9860;SDS011;4969;52.304;4.968;2023-01-31T00:19:46;34.38;;;23.55;;
9860;SDS011;4969;52.304;4.968;2023-01-31T00:22:13;35.50;;;23.08;;
9860;SDS011;4969;52.304;4.968;2023-01-31T00:24:39;31.65;;;21.75;;
9860;SDS011;4969;52.304;4.968;2023-01-31T00:27:06;22.52;;;10.13;;
9860;SDS011;4969;52.304;4.968;2023-01-31T00:29:34;26.65;;;15.55;;
9860;SDS011;4969;52.304;4.968;2023-01-31T00:32:00;26.80;;;17.42;;
9860;SDS011;4969;52.304;4.968;2023-01-31T00:34:28;34.40;;;22.52;;
9860;SDS011;4969;52.304;4.968;2023-01-31T00:36:54;26.95;;;18.95;;
9860;SDS011;4969;52.304;4.968;2023-01-31T00:39:21;31.50;;;19.05;;
9860;SDS011;4969;52.304;4.968;2023-01-31T00:41:48;22.65;;;13.32;;
9860;SDS011;4969;52.304;4.968;2023-01-31T00:44:14;25.52;;;14.98;;
9860;SDS011;4969;52.304;4.968;2023-01-31T00:46:42;28.85;;;19.48;;
9860;SDS011;4969;52.304;4.968;2023-01-31T00:49:09;32.47;;;22.92;;
9860;SDS011;4969;52.304;4.968;2023-01-31T00:51:35;30.00;;;18.53;;
9860;SDS011;4969;52.304;4.968;2023-01-31T00:54:02;35.40;;;22.27;;
9860;SDS011;4969;52.304;4.968;2023-01-31T00:56:29;28.03;;;20.33;;
9860;SDS011;4969;52.304;4.968;2023-01-31T00:58:55;25.63;;;16.67;;
9860;SDS011;4969;52.304;4.968;2023-01-31T01:01:23;19.67;;;12.37;;
9860;SDS011;4969;52.304;4.968;2023-01-31T01:03:52;30.83;;;22.20;;
9860;SDS011;4969;52.304;4.968;2023-01-31T01:06:20;25.17;;;16.23;;
9860;SDS011;4969;52.304;4.968;2023-01-31T01:08:47;28.17;;;18.73;;
9860;SDS011;4969;52.304;4.968;2023-01-31T01:11:14;28.73;;;19.55;;
9860;SDS011;4969;52.304;4.968;2023-01-31T01:13:43;32.10;;;22.08;;
9860;SDS011;4969;52.304;4.968;2023-01-31T01:16:10;27.52;;;18.42;;
9860;SDS011;4969;52.304;4.968;2023-01-31T01:18:38;29.63;;;16.37;;
9860;SDS011;4969;52.304;4.968;2023-01-31T01:21:07;28.27;;;20.10;;
9860;SDS011;4969;52.304;4.968;2023-01-31T01:23:35;24.47;;;14.97;;
9860;SDS011;4969;52.304;4.968;2023-01-31T01:26:03;26.23;;;17.60;;
9860;SDS011;4969;52.304;4.968;2023-01-31T01:28:31;27.50;;;20.13;;
9860;SDS011;4969;52.304;4.968;2023-01-31T01:30:58;23.67;;;13.33;;
9860;SDS011;4969;52.304;4.968;2023-01-31T01:33:25;18.73;;;9.43;;
9860;SDS011;4969;52.304;4.968;2023-01-31T01:35:51;22.30;;;15.23;;
9860;SDS011;4969;52.304;4.968;2023-01-31T01:38:19;27.50;;;16.47;;
9860;SDS011;4969;52.304;4.968;2023-01-31T01:40:46;25.60;;;17.17;;
9860;SDS011;4969;52.304;4.968;2023-01-31T01:43:12;21.13;;;11.83;;
9860;SDS011;4969;52.304;4.968;2023-01-31T01:45:39;27.50;;;18.53;;
9860;SDS011;4969;52.304;4.968;2023-01-31T01:48:06;25.37;;;17.77;;
9860;SDS011;4969;52.304;4.968;2023-01-31T01:50:34;20.10;;;13.10;;
9860;SDS011;4969;52.304;4.968;2023-01-31T01:53:04;27.03;;;17.67;;
9860;SDS011;4969;52.304;4.968;2023-01-31T01:55:38;23.03;;;17.03;;
9860;SDS011;4969;52.304;4.968;2023-01-31T01:58:08;14.43;;;7.70;;
9860;SDS011;4969;52.304;4.968;2023-01-31T02:00:38;24.27;;;14.98;;
9860;SDS011;4969;52.304;4.968;2023-01-31T02:03:06;23.53;;;14.70;;
9860;SDS011;4969;52.304;4.968;2023-01-31T02:05:34;22.70;;;14.17;;
9860;SDS011;4969;52.304;4.968;2023-01-31T02:08:03;19.80;;;13.13;;
9860;SDS011;4969;52.304;4.968;2023-01-31T02:10:31;20.90;;;13.50;;
9860;SDS011;4969;52.304;4.968;2023-01-31T02:13:04;17.90;;;11.47;;
9860;SDS011;4969;52.304;4.968;2023-01-31T02:15:32;18.53;;;12.13;;
9860;SDS011;4969;52.304;4.968;2023-01-31T02:17:59;18.70;;;11.90;;
9860;SDS011;4969;52.304;4.968;2023-01-31T02:20:37;18.70;;;11.10;;
9860;SDS011;4969;52.304;4.968;2023-01-31T02:23:34;20.93;;;12.87;;
9860;SDS011;4969;52.304;4.968;2023-01-31T02:26:26;20.15;;;11.75;;
9860;SDS011;4969;52.304;4.968;2023-01-31T02:32:43;21.80;;;10.87;;
9860;SDS011;4969;52.304;4.968;2023-01-31T02:35:19;14.37;;;6.93;;
9860;SDS011;4969;52.304;4.968;2023-01-31T02:37:55;21.50;;;11.17;;
9860;SDS011;4969;52.304;4.968;2023-01-31T02:40:29;20.30;;;12.50;;
9860;SDS011;4969;52.304;4.968;2023-01-31T02:43:04;29.03;;;13.97;;
9860;SDS011;4969;52.304;4.968;2023-01-31T02:45:37;16.53;;;9.13;;
9860;SDS011;4969;52.304;4.968;2023-01-31T02:48:10;20.33;;;11.23;;
9860;SDS011;4969;52.304;4.968;2023-01-31T02:50:44;19.67;;;11.90;;
9860;SDS011;4969;52.304;4.968;2023-01-31T02:53:19;19.37;;;12.27;;
9860;SDS011;4969;52.304;4.968;2023-01-31T02:55:51;14.88;;;5.50;;
9860;SDS011;4969;52.304;4.968;2023-01-31T02:58:43;16.80;;;6.40;;
9860;SDS011;4969;52.304;4.968;2023-01-31T03:01:14;19.37;;;10.30;;
9860;SDS011;4969;52.304;4.968;2023-01-31T03:03:48;21.67;;;9.63;;
9860;SDS011;4969;52.304;4.968;2023-01-31T03:09:18;20.13;;;10.60;;
9860;SDS011;4969;52.304;4.968;2023-01-31T03:11:58;16.60;;;7.20;;
9860;SDS011;4969;52.304;4.968;2023-01-31T03:14:34;18.83;;;8.37;;
9860;SDS011;4969;52.304;4.968;2023-01-31T03:17:10;19.40;;;11.27;;
9860;SDS011;4969;52.304;4.968;2023-01-31T03:19:59;18.07;;;11.27;;
9860;SDS011;4969;52.304;4.968;2023-01-31T03:22:31;21.80;;;9.60;;
9860;SDS011;4969;52.304;4.968;2023-01-31T03:25:02;18.73;;;10.60;;
9860;SDS011;4969;52.304;4.968;2023-01-31T03:27:30;19.70;;;10.43;;
9860;SDS011;4969;52.304;4.968;2023-01-31T03:29:58;14.80;;;4.83;;
9860;SDS011;4969;52.304;4.968;2023-01-31T03:32:29;19.10;;;12.73;;
9860;SDS011;4969;52.304;4.968;2023-01-31T03:35:00;16.80;;;5.97;;
9860;SDS011;4969;52.304;4.968;2023-01-31T03:37:30;19.33;;;9.63;;
9860;SDS011;4969;52.304;4.968;2023-01-31T03:40:03;19.00;;;7.73;;
9860;SDS011;4969;52.304;4.968;2023-01-31T03:42:34;20.17;;;8.60;;
9860;SDS011;4969;52.304;4.968;2023-01-31T03:45:08;22.73;;;9.03;;
9860;SDS011;4969;52.304;4.968;2023-01-31T03:47:38;18.70;;;8.83;;
9860;SDS011;4969;52.304;4.968;2023-01-31T03:50:09;21.63;;;8.53;;
9860;SDS011;4969;52.304;4.968;2023-01-31T03:52:41;18.87;;;10.17;;
9860;SDS011;4969;52.304;4.968;2023-01-31T03:55:13;16.40;;;9.33;;
9860;SDS011;4969;52.304;4.968;2023-01-31T03:57:44;19.60;;;9.47;;
9860;SDS011;4969;52.304;4.968;2023-01-31T04:00:15;16.07;;;8.07;;
9860;SDS011;4969;52.304;4.968;2023-01-31T04:02:44;20.07;;;9.30;;
9860;SDS011;4969;52.304;4.968;2023-01-31T04:05:17;18.63;;;8.07;;
9860;SDS011;4969;52.304;4.968;2023-01-31T04:07:47;15.87;;;8.37;;
9860;SDS011;4969;52.304;4.968;2023-01-31T04:10:15;16.30;;;8.60;;
9860;SDS011;4969;52.304;4.968;2023-01-31T04:12:44;20.00;;;7.83;;
9860;SDS011;4969;52.304;4.968;2023-01-31T04:15:11;22.20;;;9.47;;
9860;SDS011;4969;52.304;4.968;2023-01-31T04:17:38;20.33;;;10.03;;
9860;SDS011;4969;52.304;4.968;2023-01-31T04:20:05;15.10;;;8.47;;
9860;SDS011;4969;52.304;4.968;2023-01-31T04:22:35;17.07;;;7.93;;
9860;SDS011;4969;52.304;4.968;2023-01-31T04:25:02;17.73;;;8.60;;
9860;SDS011;4969;52.304;4.968;2023-01-31T04:27:29;19.13;;;8.03;;
9860;SDS011;4969;52.304;4.968;2023-01-31T04:29:56;18.67;;;7.87;;
9860;SDS011;4969;52.304;4.968;2023-01-31T04:32:22;17.63;;;9.77;;
9860;SDS011;4969;52.304;4.968;2023-01-31T04:34:49;17.07;;;7.90;;
9860;SDS011;4969;52.304;4.968;2023-01-31T04:37:16;18.43;;;6.77;;
9860;SDS011;4969;52.304;4.968;2023-01-31T04:39:44;22.87;;;6.40;;
9860;SDS011;4969;52.304;4.968;2023-01-31T04:42:10;14.93;;;7.38;;
9860;SDS011;4969;52.304;4.968;2023-01-31T04:44:37;14.07;;;5.50;;
9860;SDS011;4969;52.304;4.968;2023-01-31T04:47:03;18.40;;;6.23;;
9860;SDS011;4969;52.304;4.968;2023-01-31T04:49:30;18.10;;;7.90;;
9860;SDS011;4969;52.304;4.968;2023-01-31T04:51:57;16.07;;;5.17;;
9860;SDS011;4969;52.304;4.968;2023-01-31T04:54:24;15.80;;;7.93;;
9860;SDS011;4969;52.304;4.968;2023-01-31T04:56:52;15.90;;;7.97;;
9860;SDS011;4969;52.304;4.968;2023-01-31T04:59:18;18.40;;;7.97;;
9860;SDS011;4969;52.304;4.968;2023-01-31T05:01:45;16.27;;;6.90;;
9860;SDS011;4969;52.304;4.968;2023-01-31T05:04:11;14.80;;;7.83;;
9860;SDS011;4969;52.304;4.968;2023-01-31T05:06:38;18.43;;;6.60;;
9860;SDS011;4969;52.304;4.968;2023-01-31T05:09:05;16.63;;;7.70;;
9860;SDS011;4969;52.304;4.968;2023-01-31T05:11:31;21.17;;;6.97;;
9860;SDS011;4969;52.304;4.968;2023-01-31T05:13:59;15.70;;;5.87;;
9860;SDS011;4969;52.304;4.968;2023-01-31T05:16:26;14.33;;;5.37;;
9860;SDS011;4969;52.304;4.968;2023-01-31T05:18:53;18.47;;;5.07;;
9860;SDS011;4969;52.304;4.968;2023-01-31T05:21:20;14.97;;;5.10;;
9860;SDS011;4969;52.304;4.968;2023-01-31T05:23:46;16.90;;;5.30;;
9860;SDS011;4969;52.304;4.968;2023-01-31T05:26:13;18.77;;;4.93;;
9860;SDS011;4969;52.304;4.968;2023-01-31T05:28:39;17.37;;;5.13;;
9860;SDS011;4969;52.304;4.968;2023-01-31T05:31:08;18.10;;;5.33;;
9860;SDS011;4969;52.304;4.968;2023-01-31T05:33:37;15.90;;;5.30;;
9860;SDS011;4969;52.304;4.968;2023-01-31T05:36:04;17.50;;;6.50;;
9860;SDS011;4969;52.304;4.968;2023-01-31T05:38:30;11.93;;;5.83;;
9860;SDS011;4969;52.304;4.968;2023-01-31T05:40:57;13.43;;;4.53;;
9860;SDS011;4969;52.304;4.968;2023-01-31T05:43:24;15.47;;;4.17;;
9860;SDS011;4969;52.304;4.968;2023-01-31T05:45:50;18.00;;;5.30;;
9860;SDS011;4969;52.304;4.968;2023-01-31T05:48:18;13.23;;;5.20;;
9860;SDS011;4969;52.304;4.968;2023-01-31T05:50:45;13.17;;;4.77;;
9860;SDS011;4969;52.304;4.968;2023-01-31T05:53:14;13.37;;;3.90;;
9860;SDS011;4969;52.304;4.968;2023-01-31T05:55:40;14.17;;;3.90;;
9860;SDS011;4969;52.304;4.968;2023-01-31T05:58:07;15.83;;;4.43;;
9860;SDS011;4969;52.304;4.968;2023-01-31T06:00:33;15.40;;;4.20;;
9860;SDS011;4969;52.304;4.968;2023-01-31T06:03:00;14.37;;;4.33;;
9860;SDS011;4969;52.304;4.968;2023-01-31T06:05:28;10.73;;;4.10;;
9860;SDS011;4969;52.304;4.968;2023-01-31T06:07:55;13.27;;;4.13;;
9860;SDS011;4969;52.304;4.968;2023-01-31T06:10:21;15.47;;;4.67;;
9860;SDS011;4969;52.304;4.968;2023-01-31T06:12:48;11.37;;;3.97;;
9860;SDS011;4969;52.304;4.968;2023-01-31T06:15:15;14.87;;;4.27;;
9860;SDS011;4969;52.304;4.968;2023-01-31T06:17:41;16.80;;;4.13;;
9860;SDS011;4969;52.304;4.968;2023-01-31T06:20:08;15.07;;;4.23;;
9860;SDS011;4969;52.304;4.968;2023-01-31T06:22:37;15.87;;;4.10;;
9860;SDS011;4969;52.304;4.968;2023-01-31T06:25:04;13.43;;;4.20;;
9860;SDS011;4969;52.304;4.968;2023-01-31T06:27:31;14.30;;;4.27;;
9860;SDS011;4969;52.304;4.968;2023-01-31T06:29:58;17.67;;;4.60;;
9860;SDS011;4969;52.304;4.968;2023-01-31T06:32:25;11.77;;;3.67;;
9860;SDS011;4969;52.304;4.968;2023-01-31T06:34:52;19.73;;;5.00;;
9860;SDS011;4969;52.304;4.968;2023-01-31T06:37:19;13.43;;;3.97;;
9860;SDS011;4969;52.304;4.968;2023-01-31T06:39:47;12.53;;;3.50;;
9860;SDS011;4969;52.304;4.968;2023-01-31T06:42:13;11.63;;;3.47;;
9860;SDS011;4969;52.304;4.968;2023-01-31T06:44:40;16.47;;;4.13;;
9860;SDS011;4969;52.304;4.968;2023-01-31T06:47:07;13.20;;;4.17;;
9860;SDS011;4969;52.304;4.968;2023-01-31T06:49:33;14.97;;;4.33;;
9860;SDS011;4969;52.304;4.968;2023-01-31T06:52:00;12.97;;;4.13;;
9860;SDS011;4969;52.304;4.968;2023-01-31T06:54:26;14.97;;;4.17;;
9860;SDS011;4969;52.304;4.968;2023-01-31T06:56:54;16.23;;;4.03;;
9860;SDS011;4969;52.304;4.968;2023-01-31T06:59:21;18.33;;;4.23;;
9860;SDS011;4969;52.304;4.968;2023-01-31T07:01:48;15.53;;;4.07;;
9860;SDS011;4969;52.304;4.968;2023-01-31T07:04:14;12.87;;;3.60;;
9860;SDS011;4969;52.304;4.968;2023-01-31T07:06:41;9.80;;;3.43;;
9860;SDS011;4969;52.304;4.968;2023-01-31T07:09:07;12.80;;;3.67;;
9860;SDS011;4969;52.304;4.968;2023-01-31T07:11:35;10.97;;;3.50;;
9860;SDS011;4969;52.304;4.968;2023-01-31T07:14:04;12.93;;;3.87;;
9860;SDS011;4969;52.304;4.968;2023-01-31T07:16:31;13.67;;;3.57;;
9860;SDS011;4969;52.304;4.968;2023-01-31T07:18:57;13.50;;;3.83;;
9860;SDS011;4969;52.304;4.968;2023-01-31T07:21:24;10.50;;;3.13;;
9860;SDS011;4969;52.304;4.968;2023-01-31T07:23:50;12.10;;;3.80;;
9860;SDS011;4969;52.304;4.968;2023-01-31T07:26:17;12.90;;;4.07;;
9860;SDS011;4969;52.304;4.968;2023-01-31T07:28:44;16.10;;;4.23;;
9860;SDS011;4969;52.304;4.968;2023-01-31T07:31:12;16.40;;;4.10;;
9860;SDS011;4969;52.304;4.968;2023-01-31T07:33:40;15.33;;;3.70;;
9860;SDS011;4969;52.304;4.968;2023-01-31T07:36:07;11.37;;;3.47;;
9860;SDS011;4969;52.304;4.968;2023-01-31T07:38:37;9.97;;;2.93;;
9860;SDS011;4969;52.304;4.968;2023-01-31T07:41:04;14.87;;;3.60;;
9860;SDS011;4969;52.304;4.968;2023-01-31T07:43:32;13.10;;;3.57;;
9860;SDS011;4969;52.304;4.968;2023-01-31T07:45:59;17.93;;;3.93;;
9860;SDS011;4969;52.304;4.968;2023-01-31T07:48:27;12.90;;;3.60;;
9860;SDS011;4969;52.304;4.968;2023-01-31T07:50:57;17.13;;;3.43;;
9860;SDS011;4969;52.304;4.968;2023-01-31T07:53:26;10.80;;;3.20;;
9860;SDS011;4969;52.304;4.968;2023-01-31T07:55:53;11.40;;;3.00;;
9860;SDS011;4969;52.304;4.968;2023-01-31T07:58:20;10.10;;;3.57;;
9860;SDS011;4969;52.304;4.968;2023-01-31T08:00:47;12.67;;;3.50;;
9860;SDS011;4969;52.304;4.968;2023-01-31T08:03:32;8.07;;;2.87;;
9860;SDS011;4969;52.304;4.968;2023-01-31T08:05:59;10.60;;;3.00;;
9860;SDS011;4969;52.304;4.968;2023-01-31T08:08:27;12.67;;;3.70;;
9860;SDS011;4969;52.304;4.968;2023-01-31T08:10:54;13.50;;;3.30;;
9860;SDS011;4969;52.304;4.968;2023-01-31T08:13:20;11.17;;;2.90;;
9860;SDS011;4969;52.304;4.968;2023-01-31T08:15:47;10.83;;;3.30;;
9860;SDS011;4969;52.304;4.968;2023-01-31T08:18:16;11.63;;;3.10;;
9860;SDS011;4969;52.304;4.968;2023-01-31T08:20:44;14.97;;;3.13;;
9860;SDS011;4969;52.304;4.968;2023-01-31T08:23:11;13.97;;;3.13;;
9860;SDS011;4969;52.304;4.968;2023-01-31T08:25:37;12.93;;;3.23;;
9860;SDS011;4969;52.304;4.968;2023-01-31T08:28:04;9.53;;;2.77;;
9860;SDS011;4969;52.304;4.968;2023-01-31T08:30:30;13.30;;;3.20;;
9860;SDS011;4969;52.304;4.968;2023-01-31T08:32:57;9.80;;;3.00;;
9860;SDS011;4969;52.304;4.968;2023-01-31T08:35:24;11.20;;;2.83;;
9860;SDS011;4969;52.304;4.968;2023-01-31T08:37:52;12.53;;;3.00;;
9860;SDS011;4969;52.304;4.968;2023-01-31T08:40:19;11.50;;;3.20;;
9860;SDS011;4969;52.304;4.968;2023-01-31T08:42:52;13.50;;;3.10;;
9860;SDS011;4969;52.304;4.968;2023-01-31T08:45:19;17.27;;;3.53;;
9860;SDS011;4969;52.304;4.968;2023-01-31T08:47:46;12.60;;;3.00;;
9860;SDS011;4969;52.304;4.968;2023-01-31T08:50:13;17.77;;;3.77;;
9860;SDS011;4969;52.304;4.968;2023-01-31T08:52:39;13.30;;;3.27;;
9860;SDS011;4969;52.304;4.968;2023-01-31T08:55:08;12.80;;;2.77;;
9860;SDS011;4969;52.304;4.968;2023-01-31T08:57:37;15.20;;;3.50;;
9860;SDS011;4969;52.304;4.968;2023-01-31T09:00:05;15.27;;;3.53;;
9860;SDS011;4969;52.304;4.968;2023-01-31T09:02:32;10.47;;;2.97;;
9860;SDS011;4969;52.304;4.968;2023-01-31T09:04:59;10.57;;;2.90;;
9860;SDS011;4969;52.304;4.968;2023-01-31T09:07:26;13.63;;;3.57;;
9860;SDS011;4969;52.304;4.968;2023-01-31T09:09:52;17.70;;;4.23;;
9860;SDS011;4969;52.304;4.968;2023-01-31T09:12:20;13.77;;;3.73;;
9860;SDS011;4969;52.304;4.968;2023-01-31T09:14:47;17.17;;;4.30;;
9860;SDS011;4969;52.304;4.968;2023-01-31T09:17:15;13.40;;;3.33;;
9860;SDS011;4969;52.304;4.968;2023-01-31T09:19:42;14.60;;;3.73;;
9860;SDS011;4969;52.304;4.968;2023-01-31T09:22:09;14.00;;;4.03;;
9860;SDS011;4969;52.304;4.968;2023-01-31T09:24:35;16.47;;;3.67;;
9860;SDS011;4969;52.304;4.968;2023-01-31T09:27:02;12.97;;;3.43;;
9860;SDS011;4969;52.304;4.968;2023-01-31T09:29:30;14.47;;;4.37;;
9860;SDS011;4969;52.304;4.968;2023-01-31T09:31:57;15.63;;;3.90;;
9860;SDS011;4969;52.304;4.968;2023-01-31T09:34:24;16.07;;;3.80;;
9860;SDS011;4969;52.304;4.968;2023-01-31T09:36:50;13.90;;;3.33;;
9860;SDS011;4969;52.304;4.968;2023-01-31T09:39:18;15.73;;;3.90;;
9860;SDS011;4969;52.304;4.968;2023-01-31T09:41:45;17.60;;;3.83;;
9860;SDS011;4969;52.304;4.968;2023-01-31T09:44:16;13.60;;;3.67;;
9860;SDS011;4969;52.304;4.968;2023-01-31T09:46:49;16.73;;;4.00;;
9860;SDS011;4969;52.304;4.968;2023-01-31T09:49:19;14.67;;;3.83;;
9860;SDS011;4969;52.304;4.968;2023-01-31T09:51:51;22.60;;;4.57;;
9860;SDS011;4969;52.304;4.968;2023-01-31T09:54:21;15.37;;;4.10;;
9860;SDS011;4969;52.304;4.968;2023-01-31T09:56:57;13.57;;;3.83;;
9860;SDS011;4969;52.304;4.968;2023-01-31T09:59:29;13.70;;;3.67;;
9860;SDS011;4969;52.304;4.968;2023-01-31T10:02:10;17.07;;;3.73;;
9860;SDS011;4969;52.304;4.968;2023-01-31T10:04:56;13.53;;;3.87;;
9860;SDS011;4969;52.304;4.968;2023-01-31T10:07:33;14.30;;;3.97;;
9860;SDS011;4969;52.304;4.968;2023-01-31T10:10:04;13.17;;;4.07;;
9860;SDS011;4969;52.304;4.968;2023-01-31T10:12:39;18.10;;;4.40;;
9860;SDS011;4969;52.304;4.968;2023-01-31T10:15:11;17.10;;;4.53;;
9860;SDS011;4969;52.304;4.968;2023-01-31T10:17:44;17.27;;;4.33;;
9860;SDS011;4969;52.304;4.968;2023-01-31T10:20:17;15.43;;;4.60;;
9860;SDS011;4969;52.304;4.968;2023-01-31T10:22:49;19.30;;;4.30;;
9860;SDS011;4969;52.304;4.968;2023-01-31T10:25:23;16.57;;;4.43;;
9860;SDS011;4969;52.304;4.968;2023-01-31T10:27:52;15.03;;;4.00;;
9860;SDS011;4969;52.304;4.968;2023-01-31T10:30:23;16.50;;;4.30;;
9860;SDS011;4969;52.304;4.968;2023-01-31T10:32:57;15.83;;;3.90;;
9860;SDS011;4969;52.304;4.968;2023-01-31T10:35:29;16.30;;;4.20;;
9860;SDS011;4969;52.304;4.968;2023-01-31T10:38:02;14.27;;;4.33;;
9860;SDS011;4969;52.304;4.968;2023-01-31T10:40:36;15.43;;;4.23;;
9860;SDS011;4969;52.304;4.968;2023-01-31T10:43:08;16.83;;;4.27;;
9860;SDS011;4969;52.304;4.968;2023-01-31T10:45:41;18.80;;;4.63;;
9860;SDS011;4969;52.304;4.968;2023-01-31T10:48:12;20.07;;;4.47;;
9860;SDS011;4969;52.304;4.968;2023-01-31T10:50:42;18.73;;;4.73;;
9860;SDS011;4969;52.304;4.968;2023-01-31T10:53:30;14.57;;;3.80;;
9860;SDS011;4969;52.304;4.968;2023-01-31T10:56:09;19.57;;;4.63;;
9860;SDS011;4969;52.304;4.968;2023-01-31T10:58:42;15.43;;;4.80;;
9860;SDS011;4969;52.304;4.968;2023-01-31T11:01:09;17.10;;;4.40;;
9860;SDS011;4969;52.304;4.968;2023-01-31T11:03:40;16.63;;;4.17;;
9860;SDS011;4969;52.304;4.968;2023-01-31T11:06:13;16.77;;;4.93;;
9860;SDS011;4969;52.304;4.968;2023-01-31T11:08:41;16.13;;;3.70;;
9860;SDS011;4969;52.304;4.968;2023-01-31T11:11:11;14.40;;;4.13;;
9860;SDS011;4969;52.304;4.968;2023-01-31T11:13:42;17.83;;;4.37;;
9860;SDS011;4969;52.304;4.968;2023-01-31T11:16:21;16.70;;;4.30;;
9860;SDS011;4969;52.304;4.968;2023-01-31T11:18:50;12.63;;;3.83;;
9860;SDS011;4969;52.304;4.968;2023-01-31T11:21:19;14.50;;;5.40;;
9860;SDS011;4969;52.304;4.968;2023-01-31T11:23:48;14.20;;;5.70;;
9860;SDS011;4969;52.304;4.968;2023-01-31T11:26:24;14.80;;;4.43;;
9860;SDS011;4969;52.304;4.968;2023-01-31T11:28:52;13.60;;;3.27;;
9860;SDS011;4969;52.304;4.968;2023-01-31T11:31:20;16.27;;;4.40;;
9860;SDS011;4969;52.304;4.968;2023-01-31T11:33:58;16.87;;;4.53;;
9860;SDS011;4969;52.304;4.968;2023-01-31T11:36:25;18.70;;;4.70;;
9860;SDS011;4969;52.304;4.968;2023-01-31T11:38:57;15.20;;;4.53;;
9860;SDS011;4969;52.304;4.968;2023-01-31T11:41:28;12.10;;;4.03;;
9860;SDS011;4969;52.304;4.968;2023-01-31T11:44:09;16.63;;;4.43;;
9860;SDS011;4969;52.304;4.968;2023-01-31T11:46:42;16.40;;;4.30;;
9860;SDS011;4969;52.304;4.968;2023-01-31T11:49:16;15.03;;;4.03;;
9860;SDS011;4969;52.304;4.968;2023-01-31T11:51:47;15.00;;;4.47;;
9860;SDS011;4969;52.304;4.968;2023-01-31T11:54:16;14.60;;;4.77;;
9860;SDS011;4969;52.304;4.968;2023-01-31T11:56:46;17.43;;;5.50;;
9860;SDS011;4969;52.304;4.968;2023-01-31T11:59:15;14.80;;;3.60;;
9860;SDS011;4969;52.304;4.968;2023-01-31T12:01:46;14.47;;;4.67;;
9860;SDS011;4969;52.304;4.968;2023-01-31T12:04:19;14.87;;;4.47;;
9860;SDS011;4969;52.304;4.968;2023-01-31T12:06:56;11.73;;;4.83;;
9860;SDS011;4969;52.304;4.968;2023-01-31T12:09:26;14.60;;;3.87;;
9860;SDS011;4969;52.304;4.968;2023-01-31T12:11:54;13.83;;;4.40;;
9860;SDS011;4969;52.304;4.968;2023-01-31T12:14:22;12.77;;;3.93;;
9860;SDS011;4969;52.304;4.968;2023-01-31T12:16:52;14.87;;;5.23;;
9860;SDS011;4969;52.304;4.968;2023-01-31T12:19:26;13.03;;;4.97;;
9860;SDS011;4969;52.304;4.968;2023-01-31T12:22:04;12.90;;;4.50;;
9860;SDS011;4969;52.304;4.968;2023-01-31T12:24:39;16.07;;;5.83;;
9860;SDS011;4969;52.304;4.968;2023-01-31T12:27:16;16.33;;;3.67;;
9860;SDS011;4969;52.304;4.968;2023-01-31T12:30:04;12.20;;;3.90;;
9860;SDS011;4969;52.304;4.968;2023-01-31T12:32:43;14.90;;;5.03;;
9860;SDS011;4969;52.304;4.968;2023-01-31T12:35:24;12.20;;;4.17;;
9860;SDS011;4969;52.304;4.968;2023-01-31T12:38:03;18.47;;;5.33;;
9860;SDS011;4969;52.304;4.968;2023-01-31T12:40:39;15.60;;;4.77;;
9860;SDS011;4969;52.304;4.968;2023-01-31T12:43:16;15.07;;;4.90;;
9860;SDS011;4969;52.304;4.968;2023-01-31T12:45:59;15.87;;;5.17;;
9860;SDS011;4969;52.304;4.968;2023-01-31T12:48:40;15.00;;;4.87;;
9860;SDS011;4969;52.304;4.968;2023-01-31T12:51:20;14.80;;;5.87;;
9860;SDS011;4969;52.304;4.968;2023-01-31T12:54:03;13.90;;;3.97;;
9860;SDS011;4969;52.304;4.968;2023-01-31T12:56:42;15.97;;;7.67;;
9860;SDS011;4969;52.304;4.968;2023-01-31T12:59:27;15.90;;;5.97;;
9860;SDS011;4969;52.304;4.968;2023-01-31T13:02:01;14.60;;;5.30;;
9860;SDS011;4969;52.304;4.968;2023-01-31T13:04:41;12.33;;;3.57;;
9860;SDS011;4969;52.304;4.968;2023-01-31T13:07:15;13.70;;;5.63;;
9860;SDS011;4969;52.304;4.968;2023-01-31T13:09:48;12.07;;;5.40;;
9860;SDS011;4969;52.304;4.968;2023-01-31T13:12:20;14.73;;;5.63;;
9860;SDS011;4969;52.304;4.968;2023-01-31T13:14:51;13.87;;;5.23;;
9860;SDS011;4969;52.304;4.968;2023-01-31T13:17:25;15.80;;;5.97;;
9860;SDS011;4969;52.304;4.968;2023-01-31T13:19:53;11.47;;;3.47;;
9860;SDS011;4969;52.304;4.968;2023-01-31T13:22:25;12.57;;;3.37;;
9860;SDS011;4969;52.304;4.968;2023-01-31T13:24:57;9.43;;;3.40;;
9860;SDS011;4969;52.304;4.968;2023-01-31T13:27:29;12.10;;;4.20;;
9860;SDS011;4969;52.304;4.968;2023-01-31T13:30:01;11.90;;;7.33;;
9860;SDS011;4969;52.304;4.968;2023-01-31T13:32:33;15.93;;;4.90;;
9860;SDS011;4969;52.304;4.968;2023-01-31T13:35:04;16.73;;;6.63;;
9860;SDS011;4969;52.304;4.968;2023-01-31T13:37:40;19.80;;;5.23;;
9860;SDS011;4969;52.304;4.968;2023-01-31T13:40:15;20.00;;;5.57;;
9860;SDS011;4969;52.304;4.968;2023-01-31T13:42:44;13.37;;;4.70;;
9860;SDS011;4969;52.304;4.968;2023-01-31T13:45:11;12.77;;;4.03;;
9860;SDS011;4969;52.304;4.968;2023-01-31T13:47:48;14.77;;;4.60;;
9860;SDS011;4969;52.304;4.968;2023-01-31T13:50:22;12.80;;;4.63;;
9860;SDS011;4969;52.304;4.968;2023-01-31T13:52:59;13.83;;;4.77;;
9860;SDS011;4969;52.304;4.968;2023-01-31T13:55:35;14.00;;;6.00;;
9860;SDS011;4969;52.304;4.968;2023-01-31T13:58:03;10.97;;;3.70;;
9860;SDS011;4969;52.304;4.968;2023-01-31T14:00:36;14.70;;;5.57;;
9860;SDS011;4969;52.304;4.968;2023-01-31T14:03:07;14.90;;;4.50;;
9860;SDS011;4969;52.304;4.968;2023-01-31T14:08:30;12.97;;;4.17;;
9860;SDS011;4969;52.304;4.968;2023-01-31T14:11:01;14.57;;;5.13;;
9860;SDS011;4969;52.304;4.968;2023-01-31T14:13:49;15.03;;;5.53;;
9860;SDS011;4969;52.304;4.968;2023-01-31T14:16:37;15.97;;;6.83;;
9860;SDS011;4969;52.304;4.968;2023-01-31T14:22:19;12.80;;;4.20;;
9860;SDS011;4969;52.304;4.968;2023-01-31T14:24:58;9.63;;;3.60;;
9860;SDS011;4969;52.304;4.968;2023-01-31T14:27:27;20.13;;;9.20;;
9860;SDS011;4969;52.304;4.968;2023-01-31T14:29:59;13.50;;;3.60;;
9860;SDS011;4969;52.304;4.968;2023-01-31T14:32:34;11.20;;;3.10;;
9860;SDS011;4969;52.304;4.968;2023-01-31T14:35:06;8.73;;;3.90;;
9860;SDS011;4969;52.304;4.968;2023-01-31T14:37:50;10.80;;;3.03;;
9860;SDS011;4969;52.304;4.968;2023-01-31T14:40:25;11.43;;;3.23;;
9860;SDS011;4969;52.304;4.968;2023-01-31T14:43:09;9.73;;;3.27;;
9860;SDS011;4969;52.304;4.968;2023-01-31T14:51:53;12.37;;;5.20;;
9860;SDS011;4969;52.304;4.968;2023-01-31T14:54:44;13.00;;;4.10;;
9860;SDS011;4969;52.304;4.968;2023-01-31T14:57:24;13.00;;;3.43;;
9860;SDS011;4969;52.304;4.968;2023-01-31T14:59:55;15.40;;;3.90;;
9860;SDS011;4969;52.304;4.968;2023-01-31T15:05:17;15.17;;;3.73;;
9860;SDS011;4969;52.304;4.968;2023-01-31T15:07:57;16.27;;;4.47;;
9860;SDS011;4969;52.304;4.968;2023-01-31T15:13:34;15.33;;;3.40;;
9860;SDS011;4969;52.304;4.968;2023-01-31T15:16:04;13.73;;;4.27;;
9860;SDS011;4969;52.304;4.968;2023-01-31T15:18:32;10.60;;;4.03;;
9860;SDS011;4969;52.304;4.968;2023-01-31T15:21:00;13.63;;;4.20;;
9860;SDS011;4969;52.304;4.968;2023-01-31T15:23:30;12.60;;;3.97;;
9860;SDS011;4969;52.304;4.968;2023-01-31T15:25:59;10.97;;;4.30;;
9860;SDS011;4969;52.304;4.968;2023-01-31T15:28:27;8.43;;;3.30;;
9860;SDS011;4969;52.304;4.968;2023-01-31T15:30:59;14.13;;;3.50;;
9860;SDS011;4969;52.304;4.968;2023-01-31T15:33:30;12.63;;;3.30;;
9860;SDS011;4969;52.304;4.968;2023-01-31T15:36:00;12.87;;;3.30;;
9860;SDS011;4969;52.304;4.968;2023-01-31T15:38:31;12.43;;;3.77;;
9860;SDS011;4969;52.304;4.968;2023-01-31T15:41:12;16.20;;;4.43;;